sensor_id;sensor_type;location;lat;lon;timestamp;temperature;humidity
24470;DHT22;12635;50.852;5.676;2023-02-01T00:02:15;5.80;99.90
24470;DHT22;12635;50.852;5.676;2023-02-01T00:04:42;5.90;99.90
24470;DHT22;12635;50.852;5.676;2023-02-01T00:07:10;5.90;99.90
24470;DHT22;12635;50.852;5.676;2023-02-01T00:09:37;5.90;99.90
24470;DHT22;12635;50.852;5.676;2023-02-01T00:12:04;5.90;99.90
24470;DHT22;12635;50.852;5.676;2023-02-01T00:14:31;5.90;99.90
24470;DHT22;12635;50.852;5.676;2023-02-01T00:17:03;6.00;99.90
24470;DHT22;12635;50.852;5.676;2023-02-01T00:19:30;6.00;99.90
24470;DHT22;12635;50.852;5.676;2023-02-01T00:21:57;6.00;99.90
24470;DHT22;12635;50.852;5.676;2023-02-01T00:24:26;6.00;99.90
24470;DHT22;12635;50.852;5.676;2023-02-01T00:26:53;6.00;99.90
24470;DHT22;12635;50.852;5.676;2023-02-01T00:29:20;6.00;99.90
24470;DHT22;12635;50.852;5.676;2023-02-01T00:31:49;6.10;99.90
24470;DHT22;12635;50.852;5.676;2023-02-01T00:34:16;6.00;99.90
24470;DHT22;12635;50.852;5.676;2023-02-01T00:36:43;6.10;99.90
24470;DHT22;12635;50.852;5.676;2023-02-01T00:39:10;6.10;99.90
24470;DHT22;12635;50.852;5.676;2023-02-01T00:41:39;6.10;99.90
24470;DHT22;12635;50.852;5.676;2023-02-01T00:44:07;6.10;99.90
24470;DHT22;12635;50.852;5.676;2023-02-01T00:46:33;6.10;99.90
24470;DHT22;12635;50.852;5.676;2023-02-01T00:49:00;6.10;99.90
24470;DHT22;12635;50.852;5.676;2023-02-01T00:51:28;6.10;99.90
24470;DHT22;12635;50.852;5.676;2023-02-01T00:53:55;6.10;99.90
24470;DHT22;12635;50.852;5.676;2023-02-01T00:56:22;6.10;99.90
24470;DHT22;12635;50.852;5.676;2023-02-01T00:58:50;6.10;99.90
24470;DHT22;12635;50.852;5.676;2023-02-01T01:01:18;6.10;99.90
24470;DHT22;12635;50.852;5.676;2023-02-01T01:03:46;6.10;99.90
24470;DHT22;12635;50.852;5.676;2023-02-01T01:06:14;6.10;99.90
24470;DHT22;12635;50.852;5.676;2023-02-01T01:08:41;6.10;99.90
24470;DHT22;12635;50.852;5.676;2023-02-01T01:11:09;6.10;99.90
24470;DHT22;12635;50.852;5.676;2023-02-01T01:13:36;6.10;99.90
24470;DHT22;12635;50.852;5.676;2023-02-01T01:16:05;6.10;99.90
24470;DHT22;12635;50.852;5.676;2023-02-01T01:18:33;6.10;99.90
24470;DHT22;12635;50.852;5.676;2023-02-01T01:21:00;6.10;99.90
24470;DHT22;12635;50.852;5.676;2023-02-01T01:23:27;6.10;99.90
24470;DHT22;12635;50.852;5.676;2023-02-01T01:25:54;6.20;99.90
24470;DHT22;12635;50.852;5.676;2023-02-01T01:28:21;6.20;99.90
24470;DHT22;12635;50.852;5.676;2023-02-01T01:30:48;6.20;99.90
24470;DHT22;12635;50.852;5.676;2023-02-01T01:33:16;6.20;99.90
24470;DHT22;12635;50.852;5.676;2023-02-01T01:35:43;6.20;99.90
24470;DHT22;12635;50.852;5.676;2023-02-01T01:38:10;6.20;99.90
24470;DHT22;12635;50.852;5.676;2023-02-01T01:40:37;6.30;99.90
24470;DHT22;12635;50.852;5.676;2023-02-01T01:43:09;6.30;99.90
24470;DHT22;12635;50.852;5.676;2023-02-01T01:45:39;6.30;99.90
24470;DHT22;12635;50.852;5.676;2023-02-01T01:48:07;6.20;99.90
24470;DHT22;12635;50.852;5.676;2023-02-01T01:50:37;6.20;99.90
24470;DHT22;12635;50.852;5.676;2023-02-01T01:53:06;6.20;99.90
24470;DHT22;12635;50.852;5.676;2023-02-01T01:55:35;6.10;99.90
24470;DHT22;12635;50.852;5.676;2023-02-01T01:58:03;6.10;99.90
24470;DHT22;12635;50.852;5.676;2023-02-01T02:00:31;6.20;99.90
24470;DHT22;12635;50.852;5.676;2023-02-01T02:03:00;6.20;99.90
24470;DHT22;12635;50.852;5.676;2023-02-01T02:05:28;6.10;99.90
24470;DHT22;12635;50.852;5.676;2023-02-01T02:07:58;6.20;99.90
24470;DHT22;12635;50.852;5.676;2023-02-01T02:10:26;6.20;99.90
24470;DHT22;12635;50.852;5.676;2023-02-01T02:13:14;6.20;99.90
24470;DHT22;12635;50.852;5.676;2023-02-01T02:15:43;6.30;99.90
24470;DHT22;12635;50.852;5.676;2023-02-01T02:18:13;6.30;99.90
24470;DHT22;12635;50.852;5.676;2023-02-01T02:20:48;6.40;99.90
24470;DHT22;12635;50.852;5.676;2023-02-01T02:26:22;6.30;99.90
24470;DHT22;12635;50.852;5.676;2023-02-01T02:29:07;6.30;99.90
24470;DHT22;12635;50.852;5.676;2023-02-01T02:31:47;6.30;99.90
24470;DHT22;12635;50.852;5.676;2023-02-01T02:34:23;6.30;99.90
24470;DHT22;12635;50.852;5.676;2023-02-01T02:36:55;6.40;99.90
24470;DHT22;12635;50.852;5.676;2023-02-01T02:39:29;6.40;99.90
24470;DHT22;12635;50.852;5.676;2023-02-01T02:42:01;6.40;99.90
24470;DHT22;12635;50.852;5.676;2023-02-01T02:44:49;6.40;99.90
24470;DHT22;12635;50.852;5.676;2023-02-01T02:47:36;6.40;99.90
24470;DHT22;12635;50.852;5.676;2023-02-01T02:50:11;6.50;99.90
24470;DHT22;12635;50.852;5.676;2023-02-01T02:53:00;6.40;99.90
24470;DHT22;12635;50.852;5.676;2023-02-01T02:55:46;6.40;99.90
24470;DHT22;12635;50.852;5.676;2023-02-01T02:58:13;6.50;99.90
24470;DHT22;12635;50.852;5.676;2023-02-01T03:00:57;6.40;99.90
24470;DHT22;12635;50.852;5.676;2023-02-01T03:03:42;6.50;99.90
24470;DHT22;12635;50.852;5.676;2023-02-01T03:06:28;6.40;99.90
24470;DHT22;12635;50.852;5.676;2023-02-01T03:08:56;6.40;99.90
24470;DHT22;12635;50.852;5.676;2023-02-01T03:11:24;6.30;99.90
24470;DHT22;12635;50.852;5.676;2023-02-01T03:14:13;6.30;99.90
24470;DHT22;12635;50.852;5.676;2023-02-01T03:16:40;6.30;99.90
24470;DHT22;12635;50.852;5.676;2023-02-01T03:19:09;6.20;99.90
24470;DHT22;12635;50.852;5.676;2023-02-01T03:21:40;6.20;99.90
24470;DHT22;12635;50.852;5.676;2023-02-01T03:24:09;6.30;99.90
24470;DHT22;12635;50.852;5.676;2023-02-01T03:26:38;6.20;99.90
24470;DHT22;12635;50.852;5.676;2023-02-01T03:29:08;6.20;99.90
24470;DHT22;12635;50.852;5.676;2023-02-01T03:31:37;6.10;99.90
24470;DHT22;12635;50.852;5.676;2023-02-01T03:34:04;6.10;99.90
24470;DHT22;12635;50.852;5.676;2023-02-01T03:36:33;6.10;99.90
24470;DHT22;12635;50.852;5.676;2023-02-01T03:39:04;6.00;99.90
24470;DHT22;12635;50.852;5.676;2023-02-01T03:41:35;5.90;99.90
24470;DHT22;12635;50.852;5.676;2023-02-01T03:44:04;5.90;99.90
24470;DHT22;12635;50.852;5.676;2023-02-01T03:46:33;5.90;99.90
24470;DHT22;12635;50.852;5.676;2023-02-01T03:49:02;5.80;99.90
24470;DHT22;12635;50.852;5.676;2023-02-01T03:51:30;5.90;99.90
24470;DHT22;12635;50.852;5.676;2023-02-01T03:53:57;5.80;99.90
24470;DHT22;12635;50.852;5.676;2023-02-01T03:56:26;5.90;99.90
24470;DHT22;12635;50.852;5.676;2023-02-01T03:58:54;5.80;99.90
24470;DHT22;12635;50.852;5.676;2023-02-01T04:01:28;5.70;99.90
24470;DHT22;12635;50.852;5.676;2023-02-01T04:03:55;5.60;99.90
24470;DHT22;12635;50.852;5.676;2023-02-01T04:06:22;5.70;99.90
24470;DHT22;12635;50.852;5.676;2023-02-01T04:08:49;5.70;99.90
24470;DHT22;12635;50.852;5.676;2023-02-01T04:11:17;5.70;99.90
24470;DHT22;12635;50.852;5.676;2023-02-01T04:13:45;5.60;99.90
24470;DHT22;12635;50.852;5.676;2023-02-01T04:16:12;5.50;99.90
24470;DHT22;12635;50.852;5.676;2023-02-01T04:18:39;5.50;99.90
24470;DHT22;12635;50.852;5.676;2023-02-01T04:21:06;5.40;99.90
24470;DHT22;12635;50.852;5.676;2023-02-01T04:23:33;5.40;99.90
24470;DHT22;12635;50.852;5.676;2023-02-01T04:26:00;5.30;99.90
24470;DHT22;12635;50.852;5.676;2023-02-01T04:28:27;5.30;99.90
24470;DHT22;12635;50.852;5.676;2023-02-01T04:30:55;5.30;99.90
24470;DHT22;12635;50.852;5.676;2023-02-01T04:33:22;5.20;99.90
24470;DHT22;12635;50.852;5.676;2023-02-01T04:35:49;5.20;99.90
24470;DHT22;12635;50.852;5.676;2023-02-01T04:38:16;5.20;99.90
24470;DHT22;12635;50.852;5.676;2023-02-01T04:40:43;5.30;99.90
24470;DHT22;12635;50.852;5.676;2023-02-01T04:43:10;5.20;99.90
24470;DHT22;12635;50.852;5.676;2023-02-01T04:45:37;5.30;99.90
24470;DHT22;12635;50.852;5.676;2023-02-01T04:48:05;5.30;99.90
24470;DHT22;12635;50.852;5.676;2023-02-01T04:50:32;5.20;99.90
24470;DHT22;12635;50.852;5.676;2023-02-01T04:52:59;5.20;99.90
24470;DHT22;12635;50.852;5.676;2023-02-01T04:55:26;5.20;99.90
24470;DHT22;12635;50.852;5.676;2023-02-01T04:57:53;5.20;99.90
24470;DHT22;12635;50.852;5.676;2023-02-01T05:00:20;5.20;99.90
24470;DHT22;12635;50.852;5.676;2023-02-01T05:02:47;5.10;99.90
24470;DHT22;12635;50.852;5.676;2023-02-01T05:05:15;5.20;99.90
24470;DHT22;12635;50.852;5.676;2023-02-01T05:07:42;5.20;99.90
24470;DHT22;12635;50.852;5.676;2023-02-01T05:10:09;5.20;99.90
24470;DHT22;12635;50.852;5.676;2023-02-01T05:12:36;5.20;99.90
24470;DHT22;12635;50.852;5.676;2023-02-01T05:15:20;5.20;99.90
24470;DHT22;12635;50.852;5.676;2023-02-01T05:17:47;5.20;99.90
24470;DHT22;12635;50.852;5.676;2023-02-01T05:20:16;5.20;99.90
24470;DHT22;12635;50.852;5.676;2023-02-01T05:22:43;5.20;99.90
24470;DHT22;12635;50.852;5.676;2023-02-01T05:25:10;5.10;99.90
24470;DHT22;12635;50.852;5.676;2023-02-01T05:27:36;5.10;99.90
24470;DHT22;12635;50.852;5.676;2023-02-01T05:30:04;5.10;99.90
24470;DHT22;12635;50.852;5.676;2023-02-01T05:32:31;5.20;99.90
24470;DHT22;12635;50.852;5.676;2023-02-01T05:34:58;5.10;99.90
24470;DHT22;12635;50.852;5.676;2023-02-01T05:37:26;5.10;99.90
24470;DHT22;12635;50.852;5.676;2023-02-01T05:39:53;5.20;99.90
24470;DHT22;12635;50.852;5.676;2023-02-01T05:42:20;5.20;99.90
24470;DHT22;12635;50.852;5.676;2023-02-01T05:44:47;5.10;99.90
24470;DHT22;12635;50.852;5.676;2023-02-01T05:47:14;5.10;99.90
24470;DHT22;12635;50.852;5.676;2023-02-01T05:49:41;5.00;99.90
24470;DHT22;12635;50.852;5.676;2023-02-01T05:52:07;5.10;99.90
24470;DHT22;12635;50.852;5.676;2023-02-01T05:54:36;5.10;99.90
24470;DHT22;12635;50.852;5.676;2023-02-01T05:57:03;5.10;99.90
24470;DHT22;12635;50.852;5.676;2023-02-01T05:59:29;5.10;99.90
24470;DHT22;12635;50.852;5.676;2023-02-01T06:01:56;5.00;99.90
24470;DHT22;12635;50.852;5.676;2023-02-01T06:04:23;4.90;99.90
24470;DHT22;12635;50.852;5.676;2023-02-01T06:06:50;5.00;99.90
24470;DHT22;12635;50.852;5.676;2023-02-01T06:09:17;4.90;99.90
24470;DHT22;12635;50.852;5.676;2023-02-01T06:11:45;4.80;99.90
24470;DHT22;12635;50.852;5.676;2023-02-01T06:14:12;4.80;99.90
24470;DHT22;12635;50.852;5.676;2023-02-01T06:16:39;4.80;99.90
24470;DHT22;12635;50.852;5.676;2023-02-01T06:19:06;4.80;99.90
24470;DHT22;12635;50.852;5.676;2023-02-01T06:21:34;4.70;99.90
24470;DHT22;12635;50.852;5.676;2023-02-01T06:24:01;4.70;99.90
24470;DHT22;12635;50.852;5.676;2023-02-01T06:26:28;4.60;99.90
24470;DHT22;12635;50.852;5.676;2023-02-01T06:28:56;4.60;99.90
24470;DHT22;12635;50.852;5.676;2023-02-01T06:31:23;4.60;99.90
24470;DHT22;12635;50.852;5.676;2023-02-01T06:33:51;4.60;99.90
24470;DHT22;12635;50.852;5.676;2023-02-01T06:36:18;4.60;99.90
24470;DHT22;12635;50.852;5.676;2023-02-01T06:38:46;4.60;99.90
24470;DHT22;12635;50.852;5.676;2023-02-01T06:41:13;4.50;99.90
24470;DHT22;12635;50.852;5.676;2023-02-01T06:43:40;4.60;99.90
24470;DHT22;12635;50.852;5.676;2023-02-01T06:46:11;4.50;99.90
24470;DHT22;12635;50.852;5.676;2023-02-01T06:48:38;4.50;99.90
24470;DHT22;12635;50.852;5.676;2023-02-01T06:51:05;4.60;99.90
24470;DHT22;12635;50.852;5.676;2023-02-01T06:53:32;4.60;99.90
24470;DHT22;12635;50.852;5.676;2023-02-01T06:56:00;4.60;99.90
24470;DHT22;12635;50.852;5.676;2023-02-01T06:58:28;4.60;99.90
24470;DHT22;12635;50.852;5.676;2023-02-01T07:00:55;4.50;99.90
24470;DHT22;12635;50.852;5.676;2023-02-01T07:03:23;4.50;99.90
24470;DHT22;12635;50.852;5.676;2023-02-01T07:05:53;4.50;99.90
24470;DHT22;12635;50.852;5.676;2023-02-01T07:08:21;4.50;99.90
24470;DHT22;12635;50.852;5.676;2023-02-01T07:10:48;4.60;99.90
24470;DHT22;12635;50.852;5.676;2023-02-01T07:13:14;4.50;99.90
24470;DHT22;12635;50.852;5.676;2023-02-01T07:15:41;4.40;99.90
24470;DHT22;12635;50.852;5.676;2023-02-01T07:18:08;4.30;99.90
24470;DHT22;12635;50.852;5.676;2023-02-01T07:20:36;4.40;99.90
24470;DHT22;12635;50.852;5.676;2023-02-01T07:23:03;4.40;99.90
24470;DHT22;12635;50.852;5.676;2023-02-01T07:25:30;4.40;99.90
24470;DHT22;12635;50.852;5.676;2023-02-01T07:27:57;4.40;99.90
24470;DHT22;12635;50.852;5.676;2023-02-01T07:30:24;4.40;99.90
24470;DHT22;12635;50.852;5.676;2023-02-01T07:32:51;4.40;99.90
24470;DHT22;12635;50.852;5.676;2023-02-01T07:35:18;4.40;99.90
24470;DHT22;12635;50.852;5.676;2023-02-01T07:37:46;4.30;99.90
24470;DHT22;12635;50.852;5.676;2023-02-01T07:40:13;4.30;99.90
24470;DHT22;12635;50.852;5.676;2023-02-01T07:42:40;4.30;99.90
24470;DHT22;12635;50.852;5.676;2023-02-01T07:45:07;4.30;99.90
24470;DHT22;12635;50.852;5.676;2023-02-01T07:47:34;4.30;99.90
24470;DHT22;12635;50.852;5.676;2023-02-01T07:50:01;4.30;99.90
24470;DHT22;12635;50.852;5.676;2023-02-01T07:52:28;4.40;99.90
24470;DHT22;12635;50.852;5.676;2023-02-01T07:54:57;4.50;99.90
24470;DHT22;12635;50.852;5.676;2023-02-01T07:57:23;4.50;99.90
24470;DHT22;12635;50.852;5.676;2023-02-01T07:59:50;4.50;99.90
24470;DHT22;12635;50.852;5.676;2023-02-01T08:02:34;4.30;99.90
24470;DHT22;12635;50.852;5.676;2023-02-01T08:05:01;4.30;99.90
24470;DHT22;12635;50.852;5.676;2023-02-01T08:07:30;4.30;99.90
24470;DHT22;12635;50.852;5.676;2023-02-01T08:09:58;4.30;99.90
24470;DHT22;12635;50.852;5.676;2023-02-01T08:12:26;4.30;99.90
24470;DHT22;12635;50.852;5.676;2023-02-01T08:14:53;4.30;99.90
24470;DHT22;12635;50.852;5.676;2023-02-01T08:17:21;4.30;99.90
24470;DHT22;12635;50.852;5.676;2023-02-01T08:19:48;4.40;99.90
24470;DHT22;12635;50.852;5.676;2023-02-01T08:22:15;4.50;99.90
24470;DHT22;12635;50.852;5.676;2023-02-01T08:24:42;4.60;99.90
24470;DHT22;12635;50.852;5.676;2023-02-01T08:27:11;4.60;99.90
24470;DHT22;12635;50.852;5.676;2023-02-01T08:29:38;4.60;99.90
24470;DHT22;12635;50.852;5.676;2023-02-01T08:32:05;4.70;99.90
24470;DHT22;12635;50.852;5.676;2023-02-01T08:34:32;5.00;99.90
24470;DHT22;12635;50.852;5.676;2023-02-01T08:36:58;5.30;99.90
24470;DHT22;12635;50.852;5.676;2023-02-01T08:39:26;5.20;99.90
24470;DHT22;12635;50.852;5.676;2023-02-01T08:41:53;5.20;99.90
24470;DHT22;12635;50.852;5.676;2023-02-01T08:44:35;5.10;99.90
24470;DHT22;12635;50.852;5.676;2023-02-01T08:47:03;5.20;99.90
24470;DHT22;12635;50.852;5.676;2023-02-01T08:49:30;5.20;99.90
24470;DHT22;12635;50.852;5.676;2023-02-01T08:51:57;5.30;99.90
24470;DHT22;12635;50.852;5.676;2023-02-01T08:54:24;5.40;99.90
24470;DHT22;12635;50.852;5.676;2023-02-01T08:56:51;5.40;99.90
24470;DHT22;12635;50.852;5.676;2023-02-01T08:59:19;5.40;99.90
24470;DHT22;12635;50.852;5.676;2023-02-01T09:01:48;5.50;99.90
24470;DHT22;12635;50.852;5.676;2023-02-01T09:04:15;5.60;99.90
24470;DHT22;12635;50.852;5.676;2023-02-01T09:06:42;5.70;99.90
24470;DHT22;12635;50.852;5.676;2023-02-01T09:09:08;5.70;99.90
24470;DHT22;12635;50.852;5.676;2023-02-01T09:11:35;5.70;99.90
24470;DHT22;12635;50.852;5.676;2023-02-01T09:14:02;5.60;99.90
24470;DHT22;12635;50.852;5.676;2023-02-01T09:16:29;5.60;99.90
24470;DHT22;12635;50.852;5.676;2023-02-01T09:18:57;5.60;99.90
24470;DHT22;12635;50.852;5.676;2023-02-01T09:21:24;5.60;99.90
24470;DHT22;12635;50.852;5.676;2023-02-01T09:23:51;5.60;99.90
24470;DHT22;12635;50.852;5.676;2023-02-01T09:26:18;5.60;99.90
24470;DHT22;12635;50.852;5.676;2023-02-01T09:28:45;5.60;99.90
24470;DHT22;12635;50.852;5.676;2023-02-01T09:31:12;5.60;99.90
24470;DHT22;12635;50.852;5.676;2023-02-01T09:33:39;5.60;99.90
24470;DHT22;12635;50.852;5.676;2023-02-01T09:36:08;5.60;99.90
24470;DHT22;12635;50.852;5.676;2023-02-01T09:38:35;5.70;99.90
24470;DHT22;12635;50.852;5.676;2023-02-01T09:41:06;5.70;99.90
24470;DHT22;12635;50.852;5.676;2023-02-01T09:43:37;5.70;99.90
24470;DHT22;12635;50.852;5.676;2023-02-01T09:46:15;5.70;99.90
24470;DHT22;12635;50.852;5.676;2023-02-01T09:48:44;5.70;99.90
24470;DHT22;12635;50.852;5.676;2023-02-01T09:51:14;5.70;99.90
24470;DHT22;12635;50.852;5.676;2023-02-01T09:53:42;5.80;99.90
24470;DHT22;12635;50.852;5.676;2023-02-01T09:56:11;5.90;99.90
24470;DHT22;12635;50.852;5.676;2023-02-01T09:58:39;6.00;99.90
24470;DHT22;12635;50.852;5.676;2023-02-01T10:01:11;6.20;99.90
24470;DHT22;12635;50.852;5.676;2023-02-01T10:03:40;6.30;99.90
24470;DHT22;12635;50.852;5.676;2023-02-01T10:06:12;6.30;99.90
24470;DHT22;12635;50.852;5.676;2023-02-01T10:08:57;6.60;99.90
24470;DHT22;12635;50.852;5.676;2023-02-01T10:11:32;7.00;99.90
24470;DHT22;12635;50.852;5.676;2023-02-01T10:14:15;7.10;99.90
24470;DHT22;12635;50.852;5.676;2023-02-01T10:16:46;7.20;99.90
24470;DHT22;12635;50.852;5.676;2023-02-01T10:19:25;7.30;99.90
24470;DHT22;12635;50.852;5.676;2023-02-01T10:21:55;7.30;99.90
24470;DHT22;12635;50.852;5.676;2023-02-01T10:24:40;7.40;99.90
24470;DHT22;12635;50.852;5.676;2023-02-01T10:27:17;7.40;99.90
24470;DHT22;12635;50.852;5.676;2023-02-01T10:29:45;7.30;99.90
24470;DHT22;12635;50.852;5.676;2023-02-01T10:32:13;7.30;99.90
24470;DHT22;12635;50.852;5.676;2023-02-01T10:34:41;7.40;99.90
24470;DHT22;12635;50.852;5.676;2023-02-01T10:37:12;7.60;99.90
24470;DHT22;12635;50.852;5.676;2023-02-01T10:39:45;7.60;99.90
24470;DHT22;12635;50.852;5.676;2023-02-01T10:42:14;7.60;99.90
24470;DHT22;12635;50.852;5.676;2023-02-01T10:44:42;7.50;99.90
24470;DHT22;12635;50.852;5.676;2023-02-01T10:47:10;7.50;99.90
24470;DHT22;12635;50.852;5.676;2023-02-01T10:49:38;7.60;99.90
24470;DHT22;12635;50.852;5.676;2023-02-01T10:52:06;7.70;99.90
24470;DHT22;12635;50.852;5.676;2023-02-01T10:54:38;7.90;99.90
24470;DHT22;12635;50.852;5.676;2023-02-01T10:57:08;7.80;99.90
24470;DHT22;12635;50.852;5.676;2023-02-01T10:59:35;7.80;99.90
24470;DHT22;12635;50.852;5.676;2023-02-01T11:02:05;7.70;99.90
24470;DHT22;12635;50.852;5.676;2023-02-01T11:04:39;7.70;99.90
24470;DHT22;12635;50.852;5.676;2023-02-01T11:07:07;7.90;99.90
24470;DHT22;12635;50.852;5.676;2023-02-01T11:09:37;7.90;99.90
24470;DHT22;12635;50.852;5.676;2023-02-01T11:12:05;7.90;99.90
24470;DHT22;12635;50.852;5.676;2023-02-01T11:14:48;7.90;99.90
24470;DHT22;12635;50.852;5.676;2023-02-01T11:17:24;7.90;99.90
24470;DHT22;12635;50.852;5.676;2023-02-01T11:19:56;8.00;99.90
24470;DHT22;12635;50.852;5.676;2023-02-01T11:22:23;8.10;99.90
24470;DHT22;12635;50.852;5.676;2023-02-01T11:24:51;8.20;99.90
24470;DHT22;12635;50.852;5.676;2023-02-01T11:27:19;8.40;99.90
24470;DHT22;12635;50.852;5.676;2023-02-01T11:29:47;8.40;99.90
24470;DHT22;12635;50.852;5.676;2023-02-01T11:32:19;8.20;99.90
24470;DHT22;12635;50.852;5.676;2023-02-01T11:34:47;8.30;99.90
24470;DHT22;12635;50.852;5.676;2023-02-01T11:37:16;8.50;99.90
24470;DHT22;12635;50.852;5.676;2023-02-01T11:39:44;8.60;99.90
24470;DHT22;12635;50.852;5.676;2023-02-01T11:42:20;8.70;99.90
24470;DHT22;12635;50.852;5.676;2023-02-01T11:44:47;8.40;99.90
24470;DHT22;12635;50.852;5.676;2023-02-01T11:47:23;8.40;99.90
24470;DHT22;12635;50.852;5.676;2023-02-01T11:49:51;8.30;99.90
24470;DHT22;12635;50.852;5.676;2023-02-01T11:52:21;8.30;99.90
24470;DHT22;12635;50.852;5.676;2023-02-01T11:54:56;8.20;99.90
24470;DHT22;12635;50.852;5.676;2023-02-01T11:57:33;8.20;99.90
24470;DHT22;12635;50.852;5.676;2023-02-01T12:00:08;8.20;99.90
24470;DHT22;12635;50.852;5.676;2023-02-01T12:02:48;8.40;99.90
24470;DHT22;12635;50.852;5.676;2023-02-01T12:05:35;8.70;99.90
24470;DHT22;12635;50.852;5.676;2023-02-01T12:10:52;8.60;99.90
24470;DHT22;12635;50.852;5.676;2023-02-01T12:13:26;8.60;99.90
24470;DHT22;12635;50.852;5.676;2023-02-01T12:16:00;8.60;99.90
24470;DHT22;12635;50.852;5.676;2023-02-01T12:18:40;8.60;99.90
24470;DHT22;12635;50.852;5.676;2023-02-01T12:21:18;8.60;99.90
24470;DHT22;12635;50.852;5.676;2023-02-01T12:23:53;8.50;99.90
24470;DHT22;12635;50.852;5.676;2023-02-01T12:29:11;8.40;99.90
24470;DHT22;12635;50.852;5.676;2023-02-01T12:31:54;8.40;99.90
24470;DHT22;12635;50.852;5.676;2023-02-01T12:37:09;8.30;99.90
24470;DHT22;12635;50.852;5.676;2023-02-01T12:39:40;8.40;99.90
24470;DHT22;12635;50.852;5.676;2023-02-01T12:42:10;8.40;99.90
24470;DHT22;12635;50.852;5.676;2023-02-01T12:44:43;8.40;99.90
24470;DHT22;12635;50.852;5.676;2023-02-01T12:47:14;8.40;99.90
24470;DHT22;12635;50.852;5.676;2023-02-01T12:49:54;8.30;99.90
24470;DHT22;12635;50.852;5.676;2023-02-01T12:52:26;8.30;99.90
24470;DHT22;12635;50.852;5.676;2023-02-01T12:54:59;8.30;99.90
24470;DHT22;12635;50.852;5.676;2023-02-01T12:57:28;8.30;99.90
24470;DHT22;12635;50.852;5.676;2023-02-01T12:59:59;8.30;99.90
24470;DHT22;12635;50.852;5.676;2023-02-01T13:02:28;8.20;99.90
24470;DHT22;12635;50.852;5.676;2023-02-01T13:04:59;8.30;99.90
24470;DHT22;12635;50.852;5.676;2023-02-01T13:07:31;8.30;99.90
24470;DHT22;12635;50.852;5.676;2023-02-01T13:10:01;8.20;99.90
24470;DHT22;12635;50.852;5.676;2023-02-01T13:12:32;8.20;99.90
24470;DHT22;12635;50.852;5.676;2023-02-01T13:15:02;8.20;99.90
24470;DHT22;12635;50.852;5.676;2023-02-01T13:17:31;8.20;99.90
24470;DHT22;12635;50.852;5.676;2023-02-01T13:19:59;8.20;99.90
24470;DHT22;12635;50.852;5.676;2023-02-01T13:22:30;8.20;99.90
24470;DHT22;12635;50.852;5.676;2023-02-01T13:24:59;8.10;99.90
24470;DHT22;12635;50.852;5.676;2023-02-01T13:27:27;8.20;99.90
24470;DHT22;12635;50.852;5.676;2023-02-01T13:29:56;8.30;99.90
24470;DHT22;12635;50.852;5.676;2023-02-01T13:32:31;8.20;99.90
24470;DHT22;12635;50.852;5.676;2023-02-01T13:35:16;8.20;99.90
24470;DHT22;12635;50.852;5.676;2023-02-01T13:38:03;8.20;99.90
24470;DHT22;12635;50.852;5.676;2023-02-01T13:40:38;8.20;99.90
24470;DHT22;12635;50.852;5.676;2023-02-01T13:43:10;8.20;99.90
24470;DHT22;12635;50.852;5.676;2023-02-01T13:45:41;8.30;99.90
24470;DHT22;12635;50.852;5.676;2023-02-01T13:48:14;8.30;99.90
24470;DHT22;12635;50.852;5.676;2023-02-01T13:50:48;8.40;99.90
24470;DHT22;12635;50.852;5.676;2023-02-01T13:53:17;8.40;99.90
24470;DHT22;12635;50.852;5.676;2023-02-01T13:55:49;8.40;99.90
24470;DHT22;12635;50.852;5.676;2023-02-01T13:58:22;8.40;99.90
24470;DHT22;12635;50.852;5.676;2023-02-01T14:00:49;8.40;99.90
24470;DHT22;12635;50.852;5.676;2023-02-01T14:03:18;8.40;99.90
24470;DHT22;12635;50.852;5.676;2023-02-01T14:06:00;8.40;99.90
24470;DHT22;12635;50.852;5.676;2023-02-01T14:08:40;8.40;99.90
24470;DHT22;12635;50.852;5.676;2023-02-01T14:13:51;8.50;99.90
24470;DHT22;12635;50.852;5.676;2023-02-01T14:16:18;8.50;99.90
24470;DHT22;12635;50.852;5.676;2023-02-01T14:18:59;8.50;99.90
24470;DHT22;12635;50.852;5.676;2023-02-01T14:21:27;8.60;99.90
24470;DHT22;12635;50.852;5.676;2023-02-01T14:23:56;8.50;99.90
24470;DHT22;12635;50.852;5.676;2023-02-01T14:26:24;8.50;99.90
24470;DHT22;12635;50.852;5.676;2023-02-01T14:28:55;8.50;99.90
24470;DHT22;12635;50.852;5.676;2023-02-01T14:31:35;8.50;99.90
24470;DHT22;12635;50.852;5.676;2023-02-01T14:34:10;8.60;99.90
24470;DHT22;12635;50.852;5.676;2023-02-01T14:36:45;8.50;99.90
24470;DHT22;12635;50.852;5.676;2023-02-01T14:42:03;8.50;99.90
24470;DHT22;12635;50.852;5.676;2023-02-01T14:44:33;8.50;99.90
24470;DHT22;12635;50.852;5.676;2023-02-01T14:49:49;8.50;99.90
24470;DHT22;12635;50.852;5.676;2023-02-01T14:52:19;8.50;99.90
24470;DHT22;12635;50.852;5.676;2023-02-01T14:54:48;8.50;99.90
24470;DHT22;12635;50.852;5.676;2023-02-01T14:57:16;8.50;99.90
24470;DHT22;12635;50.852;5.676;2023-02-01T14:59:46;8.50;99.90
24470;DHT22;12635;50.852;5.676;2023-02-01T15:02:18;8.50;99.90
24470;DHT22;12635;50.852;5.676;2023-02-01T15:04:46;8.50;99.90
24470;DHT22;12635;50.852;5.676;2023-02-01T15:07:19;8.50;99.90
24470;DHT22;12635;50.852;5.676;2023-02-01T15:09:47;8.50;99.90
24470;DHT22;12635;50.852;5.676;2023-02-01T15:12:15;8.50;99.90
24470;DHT22;12635;50.852;5.676;2023-02-01T15:14:47;8.40;99.90
24470;DHT22;12635;50.852;5.676;2023-02-01T15:17:17;8.30;99.90
24470;DHT22;12635;50.852;5.676;2023-02-01T15:19:52;8.20;99.90
24470;DHT22;12635;50.852;5.676;2023-02-01T15:22:19;8.10;99.90
24470;DHT22;12635;50.852;5.676;2023-02-01T15:24:51;8.10;99.90
24470;DHT22;12635;50.852;5.676;2023-02-01T15:27:18;8.10;99.90
24470;DHT22;12635;50.852;5.676;2023-02-01T15:29:46;8.00;99.90
24470;DHT22;12635;50.852;5.676;2023-02-01T15:32:27;8.10;99.90
24470;DHT22;12635;50.852;5.676;2023-02-01T15:34:54;8.20;99.90
24470;DHT22;12635;50.852;5.676;2023-02-01T15:37:21;8.20;99.90
24470;DHT22;12635;50.852;5.676;2023-02-01T15:40:04;8.20;99.90
24470;DHT22;12635;50.852;5.676;2023-02-01T15:42:33;8.10;99.90
24470;DHT22;12635;50.852;5.676;2023-02-01T15:45:02;8.00;99.90
24470;DHT22;12635;50.852;5.676;2023-02-01T15:47:29;8.00;99.90
24470;DHT22;12635;50.852;5.676;2023-02-01T15:49:58;7.80;99.90
24470;DHT22;12635;50.852;5.676;2023-02-01T15:52:26;7.80;99.90
24470;DHT22;12635;50.852;5.676;2023-02-01T15:54:55;7.70;99.90
24470;DHT22;12635;50.852;5.676;2023-02-01T15:57:23;7.70;99.90
24470;DHT22;12635;50.852;5.676;2023-02-01T15:59:55;7.50;99.90
24470;DHT22;12635;50.852;5.676;2023-02-01T16:02:29;7.50;99.90
24470;DHT22;12635;50.852;5.676;2023-02-01T16:04:59;7.50;99.90
24470;DHT22;12635;50.852;5.676;2023-02-01T16:07:28;7.30;99.90
24470;DHT22;12635;50.852;5.676;2023-02-01T16:09:55;7.30;99.90
24470;DHT22;12635;50.852;5.676;2023-02-01T16:12:32;7.30;99.90
24470;DHT22;12635;50.852;5.676;2023-02-01T16:15:01;7.20;99.90
24470;DHT22;12635;50.852;5.676;2023-02-01T16:17:29;7.30;99.90
24470;DHT22;12635;50.852;5.676;2023-02-01T16:19:56;7.20;99.90
24470;DHT22;12635;50.852;5.676;2023-02-01T16:22:23;7.30;99.90